NCAR-RAP Real-Time Weather Data

Output produced by METARs form (16 August 2018  19:23 UTC)
found at http://weather.rap.ucar.edu/surface/
 
RJFO 161300Z VRB02KT 9999 FEW005 BKN020 BKN090 26/25 Q1010
RJFO 161200Z 27004KT 230V340 9999 FEW005 BKN070 BKN/// 26/25 Q1009
RJFO 161100Z 36008KT 9999 FEW003 BKN010 BKN015 26/25 Q1009
RJFO 161000Z 02004KT 9999 -SHRA FEW003 SCT007 BKN009 25/25 Q1009
RJFO 160900Z 11003KT 9999 -SHRA FEW005 SCT020 BKN045 26/25 Q1008
RJFO 160830Z VRB02KT 9999 -SHRA FEW005 SCT020 FEW025CB BKN130 26/25 Q1008 RMK 1ST005 4CU020 1CB025 6AC130 A2979 CB 20KM SW STNR
RJFO 160800Z VRB02KT 9999 -TSRA FEW005 SCT020 FEW025CB BKN130 26/25 Q1008
RJFO 160700Z 15009KT 9999 TS FEW003 SCT005 FEW025CB BKN130 26/25 Q1008
RJFO 160612Z 11006KT 070V130 9999 TS FEW015 FEW025CB BKN130 BKN/// 26/25 Q1008 RMK 1CU015 1CB025 5AC130 A2977 FBL TS 15KM NW MOV NE
RJFO 160600Z 14006KT 110V170 9999 FEW015 FEW025CB BKN130 BKN/// 27/25 Q1008
RJFO 160500Z 15006KT 9999 FEW030 BKN130 BKN/// 27/25 Q1008
RJFO 160400Z 21003KT 140V270 9999 FEW010 BKN120 BKN/// 27/25 Q1008
RJFO 160300Z 14010KT 9999 FEW006 SCT120 BKN160 28/25 Q1009
RJFO 160200Z 14011KT 9999 FEW005 BKN100 BKN140 27/25 Q1009
RJFO 160100Z 14010KT 9999 VCSH FEW010 BKN140 BKN150 28/26 Q1009
RJFO 160024Z 14010KT 9999 VCSH FEW015 BKN130 BKN150 27/25 Q1009 RMK 1CU015 5AC130 6AC150 A2980
RJFO 160000Z 21003KT 110V260 9999 FEW015 BKN130 BKN140 26/25 Q1008
RJFO 152300Z 12004KT 080V150 9999 FEW010 BKN110 BKN120 26/25 Q1008
RJFO 152200Z VRB01KT 9999 FEW015 SCT050 BKN120 27/26 Q1008
RJFO 151300Z 13011KT 9999 FEW004 SCT030 BKN170 25/25 Q1009
RJFO 151200Z 15010KT 9000 -RA FEW004 SCT050 BKN150 25/25 Q1009
RJFO 151100Z 14015KT 9999 FEW005 SCT090 BKN140 25/25 Q1008
RJFO 151000Z 14014KT 9999 FEW006 SCT180 BKN/// 26/25 Q1008
RJFO 150900Z 13014KT 9999 FEW006 SCT110 BKN170 26/25 Q1008
RJFO 150800Z 13016KT 9999 -RA FEW005 SCT050 BKN150 26/25 Q1008
RJFO 150700Z 14011KT 9999 FEW008 BKN050 BKN/// 27/25 Q1008
RJFO 150600Z 13015KT 9000 FEW006 BKN050 BKN060 27/25 Q1008
RJFO 150500Z 13016KT 6000 -SHRA FEW005 SCT025 FEW035CB BKN040 27/26 Q1008
RJFO 150400Z 13014KT 9999 FEW004 SCT050 BKN060 27/26 Q1008
RJFO 150342Z 13011KT 9999 VCSH FEW004 SCT040 BKN050 26/26 Q1009 RMK 1ST004 3CU040 5SC050 A2979
RJFO 150331Z 13010KT 4500 -SHRA BR FEW003 SCT025 BKN040 26/26 Q1008 RMK 1ST003 3CU025 5CU040 A2979
RJFO 150300Z 13013KT 9999 -SHRA FEW006 SCT025 BKN040 26/26 Q1009
RJFO 150221Z 14015KT 5000 -SHRA BR FEW006 SCT025 BKN040 25/25 Q1009 RMK 1ST006 3CU025 5CU040 A2980
RJFO 150200Z 13017KT 4000 -SHRA BR FEW006 SCT030 BKN045 26/25 Q1009
RJFO 150100Z 13011KT 9999 FEW005 SCT030 BKN045 25/25 Q1009
RJFO 150000Z 12015KT 9999 VCSH BR FEW005 SCT030 BKN045 25/25 Q1009
RJFO 142322Z 12010KT 4500 -SHRA BR FEW006 SCT035 BKN120 25/25 Q1009 RMK 1ST006 4CU035 6AC120 A2980
RJFO 142300Z 12018KT 8000 VCSH BR FEW006 SCT035 BKN120 25/25 Q1008
RJFO 142200Z 12016KT 8000 BR FEW008 SCT120 BKN/// 25/25 Q1008
RJFO 141300Z 23003KT 170V250 9999 FEW035 SCT060 BKN/// 27/24 Q1009
RJFO 141200Z 26002KT 9999 FEW040 SCT/// 28/24 Q1009
RJFO 141100Z 00000KT 9999 FEW035 BKN/// 28/25 Q1009
RJFO 141000Z VRB02KT 9999 FEW035 BKN/// 28/24 Q1009
RJFO 140900Z 08004KT 9999 FEW030 BKN/// 29/25 Q1009
RJFO 140800Z 09006KT 9999 FEW030 BKN/// 28/25 Q1009